createdAt,value
2019-02-24T00:02:18.972Z,1.90
2019-02-24T00:04:48.796Z,1.90
2019-02-24T00:07:18.233Z,1.80
2019-02-24T00:09:47.702Z,1.80
2019-02-24T00:12:17.384Z,1.80
2019-02-24T00:14:46.841Z,1.80
2019-02-24T00:17:16.299Z,1.80
2019-02-24T00:19:45.780Z,2.00
2019-02-24T00:22:15.256Z,2.00
2019-02-24T00:24:44.716Z,2.10
2019-02-24T00:27:14.162Z,2.10
2019-02-24T00:29:43.653Z,2.10
2019-02-24T00:32:13.079Z,2.10
2019-02-24T00:34:42.562Z,2.10
2019-02-24T00:37:12.012Z,2.10
2019-02-24T00:39:41.445Z,2.00
2019-02-24T00:42:11.004Z,2.00
2019-02-24T00:44:40.441Z,1.90
2019-02-24T00:47:09.923Z,1.90
2019-02-24T00:49:39.380Z,1.90
2019-02-24T00:52:08.843Z,1.90
2019-02-24T00:54:38.680Z,1.90
2019-02-24T00:57:08.129Z,1.90
2019-02-24T00:59:37.611Z,1.80
2019-02-24T01:02:06.986Z,1.80
2019-02-24T01:04:36.460Z,1.80
2019-02-24T01:07:05.912Z,1.80
2019-02-24T01:09:35.356Z,1.70
2019-02-24T01:12:04.845Z,1.60
2019-02-24T01:14:34.292Z,1.50
2019-02-24T01:17:03.762Z,1.50
2019-02-24T01:19:33.211Z,1.40
2019-02-24T01:22:02.768Z,1.40
2019-02-24T01:24:32.227Z,1.40
2019-02-24T01:27:01.685Z,1.40
2019-02-24T01:29:31.539Z,1.50
2019-02-24T01:32:00.989Z,1.50
2019-02-24T01:34:30.476Z,1.50
2019-02-24T01:36:59.920Z,1.50
2019-02-24T01:39:29.350Z,1.50
2019-02-24T01:41:58.825Z,1.60
2019-02-24T01:44:28.278Z,1.60
2019-02-24T01:46:57.735Z,1.60
2019-02-24T01:49:27.180Z,1.60
2019-02-24T01:51:56.636Z,1.60
2019-02-24T01:54:26.100Z,1.60
2019-02-24T01:56:55.542Z,1.60
2019-02-24T01:59:25.032Z,1.50
2019-02-24T02:01:54.476Z,1.50
2019-02-24T02:04:23.911Z,1.50
2019-02-24T02:06:53.420Z,1.40
2019-02-24T02:09:23.131Z,1.40
2019-02-24T02:11:52.630Z,1.40
2019-02-24T02:14:22.008Z,1.40
2019-02-24T02:16:51.393Z,1.30
2019-02-24T02:19:20.804Z,1.30
2019-02-24T02:21:50.320Z,1.20
2019-02-24T02:24:19.745Z,1.30
2019-02-24T02:26:49.123Z,1.40
2019-02-24T02:29:18.495Z,1.40
2019-02-24T02:31:47.931Z,1.40
2019-02-24T02:34:17.310Z,1.40
2019-02-24T02:36:46.785Z,1.40
2019-02-24T02:39:16.172Z,1.40
2019-02-24T02:41:45.550Z,1.30
2019-02-24T02:44:14.876Z,1.30
2019-02-24T02:46:44.250Z,1.30
2019-02-24T02:49:13.728Z,1.30
2019-02-24T02:51:43.107Z,1.30
2019-02-24T02:54:12.491Z,1.20
2019-02-24T02:56:41.912Z,1.20
2019-02-24T02:59:11.286Z,1.20
2019-02-24T03:01:41.029Z,1.10
2019-02-24T03:04:10.400Z,1.10
2019-02-24T03:07:07.111Z,1.00
2019-02-24T03:09:36.494Z,1.00
2019-02-24T03:12:05.869Z,0.90
2019-02-24T03:14:35.273Z,1.00
2019-02-24T03:17:04.689Z,1.10
2019-02-24T03:19:34.089Z,1.20
2019-02-24T03:22:03.463Z,1.40
2019-02-24T03:24:32.916Z,1.40
2019-02-24T03:27:02.303Z,1.50
2019-02-24T03:29:31.680Z,1.50
2019-02-24T03:32:01.099Z,1.50
2019-02-24T03:34:30.515Z,1.50
2019-02-24T03:36:59.876Z,1.50
2019-02-24T03:39:29.274Z,1.40
2019-02-24T03:41:58.684Z,1.40
2019-02-24T03:44:28.054Z,1.30
2019-02-24T03:46:57.437Z,1.20
2019-02-24T03:49:26.856Z,1.20
2019-02-24T03:51:56.236Z,1.30
2019-02-24T03:54:25.638Z,1.30
2019-02-24T03:56:55.039Z,1.30
2019-02-24T03:59:24.535Z,1.30
2019-02-24T04:01:53.912Z,1.20
2019-02-24T04:04:23.290Z,1.20
2019-02-24T04:06:52.699Z,1.30
2019-02-24T04:09:22.072Z,1.30
2019-02-24T04:11:51.475Z,1.30
2019-02-24T04:14:20.888Z,1.30
2019-02-24T04:16:50.307Z,1.20
2019-02-24T04:19:19.679Z,1.20
2019-02-24T04:21:49.074Z,1.20
2019-02-24T04:24:18.514Z,1.10
2019-02-24T04:26:47.939Z,1.00
2019-02-24T04:29:24.531Z,1.00
2019-02-24T04:31:48.368Z,1.00
2019-02-24T04:34:17.750Z,0.90
2019-02-24T04:36:47.143Z,0.90
2019-02-24T04:39:16.525Z,0.90
2019-02-24T04:41:45.943Z,0.90
2019-02-24T04:44:15.305Z,0.80
2019-02-24T04:46:44.679Z,0.80
2019-02-24T04:49:14.075Z,0.70
2019-02-24T04:51:43.460Z,0.80
2019-02-24T04:54:12.889Z,0.80
2019-02-24T04:56:42.256Z,0.90
2019-02-24T04:59:11.667Z,0.90
2019-02-24T05:01:41.027Z,0.90
2019-02-24T05:04:10.316Z,0.90
2019-02-24T05:06:39.705Z,0.90
2019-02-24T05:09:09.117Z,0.90
2019-02-24T05:11:38.512Z,0.90
2019-02-24T05:14:08.174Z,1.00
2019-02-24T05:16:37.597Z,1.00
2019-02-24T05:19:06.313Z,1.00
2019-02-24T05:21:35.692Z,1.10
2019-02-24T05:24:05.085Z,1.00
2019-02-24T05:26:34.479Z,1.00
2019-02-24T05:29:03.895Z,0.90
2019-02-24T05:31:33.276Z,0.90
2019-02-24T05:34:02.681Z,0.80
2019-02-24T05:36:32.063Z,0.60
2019-02-24T05:39:01.431Z,0.50
2019-02-24T05:41:30.831Z,0.40
2019-02-24T05:44:00.208Z,0.30
2019-02-24T05:46:29.987Z,0.20
2019-02-24T05:48:59.903Z,0.10
2019-02-24T05:51:29.297Z,0.10
2019-02-24T05:53:58.681Z,0.10
2019-02-24T05:56:28.059Z,0.10
2019-02-24T05:58:57.486Z,0.00
2019-02-24T06:01:26.855Z,0.00
2019-02-24T06:03:56.246Z,0.00
2019-02-24T06:06:25.639Z,0.00
2019-02-24T06:08:55.018Z,0.00
2019-02-24T06:11:24.539Z,0.00
2019-02-24T06:13:53.915Z,0.10
2019-02-24T06:16:23.270Z,0.20
2019-02-24T06:18:52.676Z,0.30
2019-02-24T06:21:22.056Z,0.40
2019-02-24T06:23:51.460Z,0.50
2019-02-24T06:26:21.257Z,0.50
2019-02-24T06:28:50.619Z,0.50
2019-02-24T06:31:19.983Z,0.50
2019-02-24T06:33:49.315Z,0.40
2019-02-24T06:36:18.726Z,0.40
2019-02-24T06:38:48.101Z,0.40
2019-02-24T06:41:17.467Z,0.50
2019-02-24T06:43:46.879Z,0.50
2019-02-24T06:46:16.247Z,0.50
2019-02-24T06:48:45.653Z,0.50
2019-02-24T06:51:15.953Z,0.50
2019-02-24T06:53:45.335Z,0.60
2019-02-24T06:56:14.723Z,0.60
2019-02-24T06:58:44.103Z,0.70
2019-02-24T07:01:13.508Z,0.70
2019-02-24T07:03:42.881Z,0.90
2019-02-24T07:06:12.257Z,1.00
2019-02-24T07:08:41.665Z,1.20
2019-02-24T07:11:11.031Z,1.30
2019-02-24T07:13:40.656Z,1.40
2019-02-24T07:16:10.367Z,1.50
2019-02-24T07:18:39.747Z,1.50
2019-02-24T07:21:09.164Z,1.50
2019-02-24T07:23:38.548Z,1.50
2019-02-24T07:26:08.009Z,1.60
2019-02-24T07:28:37.402Z,1.60
2019-02-24T07:31:06.757Z,1.70
2019-02-24T07:33:36.496Z,1.70
2019-02-24T07:36:05.884Z,1.80
2019-02-24T07:38:35.263Z,1.90
2019-02-24T07:41:04.681Z,2.00
2019-02-24T07:43:34.069Z,2.10
2019-02-24T07:46:03.480Z,2.10
2019-02-24T07:48:32.831Z,2.10
2019-02-24T07:51:02.261Z,2.10
2019-02-24T07:53:31.811Z,2.20
2019-02-24T07:56:01.219Z,2.30
2019-02-24T07:58:30.556Z,2.40
2019-02-24T08:00:59.936Z,2.50
2019-02-24T08:03:29.355Z,2.60
2019-02-24T08:05:58.738Z,2.70
2019-02-24T08:08:28.152Z,2.70
2019-02-24T08:10:57.534Z,2.80
2019-02-24T08:13:26.927Z,2.70
2019-02-24T08:15:56.339Z,2.60
2019-02-24T08:18:25.739Z,2.60
2019-02-24T08:20:55.201Z,2.60
2019-02-24T08:23:24.538Z,2.60
2019-02-24T08:25:54.010Z,2.70
2019-02-24T08:28:23.443Z,2.80
2019-02-24T08:30:52.848Z,2.90
2019-02-24T08:33:22.271Z,2.90
2019-02-24T08:35:51.659Z,2.90
2019-02-24T08:38:21.048Z,2.90
2019-02-24T08:40:50.775Z,2.90
2019-02-24T08:43:20.116Z,3.00
2019-02-24T08:45:49.500Z,3.00
2019-02-24T08:48:19.317Z,3.00
2019-02-24T08:50:48.789Z,3.00
2019-02-24T08:53:18.171Z,3.00
2019-02-24T08:55:47.584Z,3.10
2019-02-24T08:58:17.059Z,3.10
2019-02-24T09:00:51.086Z,3.10
2019-02-24T09:03:17.547Z,3.20
2019-02-24T09:05:46.932Z,3.30
2019-02-24T09:08:16.366Z,3.40
2019-02-24T09:10:45.771Z,3.50
2019-02-24T09:13:15.176Z,3.70
2019-02-24T09:15:44.551Z,3.80
2019-02-24T09:18:13.909Z,3.90
2019-02-24T09:20:43.359Z,3.90
2019-02-24T09:23:12.741Z,4.10
2019-02-24T09:25:42.142Z,4.20
2019-02-24T09:28:11.645Z,4.40
2019-02-24T09:30:41.718Z,4.50
2019-02-24T09:33:11.127Z,4.60
2019-02-24T09:35:40.543Z,4.80
2019-02-24T09:38:09.960Z,4.90
2019-02-24T09:40:39.384Z,4.90
2019-02-24T09:43:08.748Z,4.90
2019-02-24T09:45:38.203Z,5.10
2019-02-24T09:48:07.595Z,5.40
2019-02-24T09:50:36.900Z,5.70
2019-02-24T09:53:06.300Z,6.10
2019-02-24T09:55:35.668Z,6.30
2019-02-24T09:58:05.069Z,6.60
2019-02-24T10:00:34.445Z,6.80
2019-02-24T10:03:03.855Z,7.00
2019-02-24T10:05:33.223Z,7.10
2019-02-24T10:08:02.586Z,7.20
2019-02-24T10:10:31.975Z,7.30
2019-02-24T10:13:01.290Z,7.50
2019-02-24T10:15:30.626Z,7.60
2019-02-24T10:18:00.018Z,7.60
2019-02-24T10:20:29.376Z,7.70
2019-02-24T10:22:58.788Z,7.80
2019-02-24T10:25:28.169Z,7.90
2019-02-24T10:27:57.648Z,8.00
2019-02-24T10:30:27.035Z,8.20
2019-02-24T10:32:56.688Z,8.30
2019-02-24T10:35:26.127Z,8.40
2019-02-24T10:37:55.507Z,8.60
2019-02-24T10:40:24.915Z,8.80
2019-02-24T10:42:54.303Z,9.00
2019-02-24T10:45:23.675Z,9.10
2019-02-24T10:47:53.087Z,9.20
2019-02-24T10:50:22.537Z,9.30
2019-02-24T10:52:51.912Z,9.40
2019-02-24T10:55:21.283Z,9.50
2019-02-24T10:57:50.727Z,9.60
2019-02-24T11:00:20.626Z,9.70
2019-02-24T11:02:49.995Z,9.70
2019-02-24T11:05:19.403Z,9.80
2019-02-24T11:07:48.780Z,9.90
2019-02-24T11:10:18.229Z,9.90
2019-02-24T11:12:47.639Z,9.90
2019-02-24T11:15:17.000Z,9.90
2019-02-24T11:17:46.411Z,10.00
2019-02-24T11:20:15.990Z,10.00
2019-02-24T11:22:45.382Z,10.10
2019-02-24T11:25:14.783Z,10.10
2019-02-24T11:27:44.287Z,10.20
2019-02-24T11:30:13.827Z,10.20
2019-02-24T11:32:43.206Z,10.20
2019-02-24T11:35:12.735Z,10.20
2019-02-24T11:37:42.099Z,10.10
2019-02-24T11:40:11.648Z,10.00
2019-02-24T11:42:41.036Z,9.90
2019-02-24T11:45:10.568Z,9.90
2019-02-24T11:47:39.939Z,9.80
2019-02-24T11:50:09.406Z,9.80
2019-02-24T11:52:38.823Z,9.90
2019-02-24T11:55:08.159Z,9.90
2019-02-24T11:57:37.572Z,10.00
2019-02-24T12:00:07.098Z,10.10
2019-02-24T12:02:36.509Z,10.10
2019-02-24T12:05:06.296Z,10.20
2019-02-24T12:07:35.756Z,10.30
2019-02-24T12:10:05.804Z,10.30
2019-02-24T12:12:35.207Z,10.20
2019-02-24T12:15:04.887Z,10.20
2019-02-24T12:17:34.278Z,10.10
2019-02-24T12:20:03.767Z,10.00
2019-02-24T12:22:33.212Z,10.00
2019-02-24T12:25:02.592Z,9.90
2019-02-24T12:27:32.003Z,9.90
2019-02-24T12:30:01.447Z,10.00
2019-02-24T12:32:30.921Z,10.00
2019-02-24T12:35:00.315Z,10.10
2019-02-24T12:37:29.716Z,10.20
2019-02-24T12:39:59.134Z,10.30
2019-02-24T12:42:28.525Z,10.30
2019-02-24T12:44:57.930Z,10.40
2019-02-24T12:47:27.320Z,10.50
2019-02-24T12:50:02.965Z,10.50
2019-02-24T12:52:27.843Z,10.70
2019-02-24T12:54:57.218Z,10.70
2019-02-24T12:57:26.632Z,10.70
2019-02-24T12:59:56.008Z,10.70
2019-02-24T13:02:25.407Z,10.70
2019-02-24T13:04:54.791Z,10.90
2019-02-24T13:07:24.204Z,10.90
2019-02-24T13:09:53.588Z,10.90
2019-02-24T13:12:22.982Z,11.00
2019-02-24T13:14:52.426Z,11.10
2019-02-24T13:17:21.799Z,11.10
2019-02-24T13:19:51.235Z,11.10
2019-02-24T13:22:20.643Z,11.20
2019-02-24T13:24:50.774Z,11.20
2019-02-24T13:27:20.156Z,11.30
2019-02-24T13:29:49.602Z,11.30
2019-02-24T13:32:19.056Z,11.20
2019-02-24T13:34:48.415Z,11.30
2019-02-24T13:37:17.840Z,11.40
2019-02-24T13:39:47.992Z,11.40
2019-02-24T13:42:17.453Z,11.40
2019-02-24T13:44:46.853Z,11.40
2019-02-24T13:47:16.311Z,11.30
2019-02-24T13:49:45.724Z,11.10
2019-02-24T13:52:15.106Z,10.90
2019-02-24T13:54:44.532Z,10.80
2019-02-24T13:57:13.926Z,10.70
2019-02-24T13:59:43.345Z,10.60
2019-02-24T14:02:12.716Z,10.60
2019-02-24T14:04:42.097Z,10.70
2019-02-24T14:07:11.503Z,10.70
2019-02-24T14:09:40.879Z,10.60
2019-02-24T14:12:10.283Z,10.70
2019-02-24T14:14:48.711Z,10.70
2019-02-24T14:17:10.735Z,10.70
2019-02-24T14:19:40.129Z,10.70
2019-02-24T14:22:09.825Z,10.70
2019-02-24T14:24:39.224Z,10.70
2019-02-24T14:27:08.619Z,10.60
2019-02-24T14:29:38.357Z,10.60
2019-02-24T14:32:07.764Z,10.60
2019-02-24T14:34:37.194Z,10.70
2019-02-24T14:37:06.627Z,10.70
2019-02-24T14:39:36.036Z,10.70
2019-02-24T14:42:05.458Z,10.70
2019-02-24T14:44:34.864Z,10.50
2019-02-24T14:47:04.310Z,10.50
2019-02-24T14:49:33.711Z,10.50
2019-02-24T14:52:03.101Z,10.50
2019-02-24T14:54:32.506Z,10.50
2019-02-24T14:57:01.903Z,10.50
2019-02-24T14:59:31.324Z,10.50
2019-02-24T15:02:00.724Z,10.40
2019-02-24T15:04:30.195Z,10.30
2019-02-24T15:06:59.583Z,10.30
2019-02-24T15:09:29.006Z,10.10
2019-02-24T15:11:58.432Z,10.10
2019-02-24T15:14:27.824Z,10.00
2019-02-24T15:16:57.235Z,10.00
2019-02-24T15:19:26.615Z,10.00
2019-02-24T15:21:55.940Z,10.00
2019-02-24T15:24:25.314Z,10.00
2019-02-24T15:26:54.712Z,10.00
2019-02-24T15:29:24.191Z,10.00
2019-02-24T15:31:53.663Z,10.00
2019-02-24T15:34:23.069Z,10.00
2019-02-24T15:36:52.452Z,10.00
2019-02-24T15:39:21.855Z,10.00
2019-02-24T15:41:51.238Z,10.00
2019-02-24T15:44:20.652Z,10.00
2019-02-24T15:46:50.039Z,10.00
2019-02-24T15:49:19.451Z,9.90
2019-02-24T15:51:48.815Z,9.70
2019-02-24T15:54:18.287Z,9.60
2019-02-24T15:56:47.683Z,9.60
2019-02-24T15:59:17.069Z,9.60
2019-02-24T16:01:46.471Z,9.60
2019-02-24T16:04:15.839Z,9.60
2019-02-24T16:06:45.263Z,9.60
2019-02-24T16:09:14.672Z,9.60
2019-02-24T16:11:44.088Z,9.60
2019-02-24T16:14:13.462Z,9.50
2019-02-24T16:16:42.895Z,9.40
2019-02-24T16:19:12.259Z,9.40
2019-02-24T16:21:41.628Z,9.40
2019-02-24T16:24:11.031Z,9.30
2019-02-24T16:26:40.415Z,9.30
2019-02-24T16:29:09.727Z,9.30
2019-02-24T16:31:39.127Z,9.20
2019-02-24T16:34:08.656Z,9.10
2019-02-24T16:36:38.039Z,9.10
2019-02-24T16:39:07.420Z,9.00
2019-02-24T16:41:36.831Z,8.90
2019-02-24T16:44:06.208Z,8.80
2019-02-24T16:46:35.603Z,8.70
2019-02-24T16:49:04.992Z,8.60
2019-02-24T16:51:34.407Z,8.60
2019-02-24T16:54:03.791Z,8.50
2019-02-24T16:56:33.167Z,8.40
2019-02-24T16:59:02.571Z,8.30
2019-02-24T17:01:31.992Z,8.20
2019-02-24T17:04:01.379Z,8.20
2019-02-24T17:06:30.778Z,8.10
2019-02-24T17:09:03.008Z,8.00
2019-02-24T17:11:31.179Z,7.90
2019-02-24T17:14:00.607Z,7.80
2019-02-24T17:16:29.988Z,7.80
2019-02-24T17:18:59.363Z,7.70
2019-02-24T17:21:28.771Z,7.60
2019-02-24T17:23:58.167Z,7.50
2019-02-24T17:26:27.571Z,7.50
2019-02-24T17:28:56.946Z,7.40
2019-02-24T17:31:28.606Z,7.40
2019-02-24T17:33:57.422Z,7.40
2019-02-24T17:36:26.801Z,7.30
2019-02-24T17:38:56.201Z,7.30
2019-02-24T17:41:25.602Z,7.20
2019-02-24T17:43:54.985Z,7.10
2019-02-24T17:46:24.373Z,7.10
2019-02-24T17:48:53.763Z,7.00
2019-02-24T17:51:23.151Z,6.90
2019-02-24T17:53:52.586Z,6.90
2019-02-24T17:56:21.959Z,6.90
2019-02-24T17:58:51.702Z,6.90
2019-02-24T18:01:21.143Z,6.90
2019-02-24T18:03:50.511Z,6.90
2019-02-24T18:06:19.915Z,6.90
2019-02-24T18:08:49.299Z,6.80
2019-02-24T18:11:18.730Z,6.70
2019-02-24T18:13:48.517Z,6.70
2019-02-24T18:16:17.935Z,6.60
2019-02-24T18:18:47.331Z,6.50
2019-02-24T18:21:16.719Z,6.40
2019-02-24T18:23:46.132Z,6.30
2019-02-24T18:26:15.495Z,6.20
2019-02-24T18:28:44.911Z,6.20
2019-02-24T18:31:14.403Z,6.10
2019-02-24T18:33:48.436Z,6.10
2019-02-24T18:36:14.961Z,6.00
2019-02-24T18:38:44.343Z,6.00
2019-02-24T18:41:13.862Z,6.00
2019-02-24T18:43:43.247Z,5.90
2019-02-24T18:46:12.679Z,5.90
2019-02-24T18:48:42.087Z,5.80
2019-02-24T18:51:11.504Z,5.80
2019-02-24T18:53:40.887Z,5.80
2019-02-24T18:56:11.232Z,5.80
2019-02-24T18:58:40.672Z,5.70
2019-02-24T19:01:10.087Z,5.60
2019-02-24T19:03:39.511Z,5.60
2019-02-24T19:06:08.908Z,5.60
2019-02-24T19:08:38.348Z,5.60
2019-02-24T19:11:07.748Z,5.60
2019-02-24T19:13:37.143Z,5.60
2019-02-24T19:16:06.563Z,5.60
2019-02-24T19:18:35.953Z,5.60
2019-02-24T19:21:05.408Z,5.50
2019-02-24T19:23:34.796Z,5.50
2019-02-24T19:26:04.203Z,5.50
2019-02-24T19:28:33.587Z,5.50
2019-02-24T19:31:03.007Z,5.40
2019-02-24T19:33:32.394Z,5.40
2019-02-24T19:36:01.785Z,5.40
2019-02-24T19:38:31.219Z,5.30
2019-02-24T19:41:00.603Z,5.20
2019-02-24T19:43:30.026Z,5.20
2019-02-24T19:45:59.410Z,5.20
2019-02-24T19:48:29.171Z,5.10
2019-02-24T19:50:58.572Z,5.20
2019-02-24T19:53:28.243Z,5.10
2019-02-24T19:55:57.652Z,5.00
2019-02-24T19:58:27.039Z,4.90
2019-02-24T20:00:56.451Z,4.80
2019-02-24T20:03:25.832Z,4.80
2019-02-24T20:05:55.235Z,4.80
2019-02-24T20:08:24.651Z,4.80
2019-02-24T20:10:54.341Z,4.80
2019-02-24T20:13:23.752Z,4.80
2019-02-24T20:15:53.164Z,4.90
2019-02-24T20:18:22.596Z,4.90
2019-02-24T20:20:51.967Z,4.90
2019-02-24T20:23:21.383Z,4.90
2019-02-24T20:25:50.786Z,4.80
2019-02-24T20:28:20.167Z,4.80
2019-02-24T20:30:49.566Z,4.70
2019-02-24T20:33:19.009Z,4.70
2019-02-24T20:35:48.456Z,4.60
2019-02-24T20:38:17.821Z,4.50
2019-02-24T20:40:47.236Z,4.50
2019-02-24T20:43:16.611Z,4.40
2019-02-24T20:45:46.005Z,4.40
2019-02-24T20:48:15.403Z,4.30
2019-02-24T20:50:44.776Z,4.40
2019-02-24T20:53:14.188Z,4.40
2019-02-24T20:55:43.567Z,4.40
2019-02-24T20:58:12.971Z,4.30
2019-02-24T21:00:42.360Z,4.30
2019-02-24T21:03:11.741Z,4.40
2019-02-24T21:05:41.156Z,4.40
2019-02-24T21:08:10.585Z,4.40
2019-02-24T21:10:39.946Z,4.40
2019-02-24T21:13:09.310Z,4.40
2019-02-24T21:15:38.727Z,4.40
2019-02-24T21:18:08.117Z,4.30
2019-02-24T21:20:37.512Z,4.30
2019-02-24T21:23:06.958Z,4.20
2019-02-24T21:25:36.616Z,4.20
2019-02-24T21:28:06.023Z,4.00
2019-02-24T21:30:35.389Z,4.00
2019-02-24T21:33:04.824Z,4.00
2019-02-24T21:35:34.231Z,3.90
2019-02-24T21:38:03.610Z,3.90
2019-02-24T21:40:32.996Z,3.90
2019-02-24T21:43:02.430Z,3.90
2019-02-24T21:45:31.811Z,3.90
2019-02-24T21:48:01.179Z,3.90
2019-02-24T21:50:30.484Z,4.00
2019-02-24T21:52:59.882Z,4.00
2019-02-24T21:55:29.259Z,4.00
2019-02-24T21:57:58.663Z,4.00
2019-02-24T22:00:28.051Z,4.00
2019-02-24T22:02:57.475Z,4.00
2019-02-24T22:05:26.843Z,4.00
2019-02-24T22:07:56.238Z,3.90
2019-02-24T22:10:25.640Z,3.80
2019-02-24T22:12:55.015Z,3.70
2019-02-24T22:15:24.533Z,3.70
2019-02-24T22:17:53.895Z,3.70
2019-02-24T22:20:23.276Z,3.70
2019-02-24T22:22:52.688Z,3.80
2019-02-24T22:25:22.330Z,3.80
2019-02-24T22:27:51.740Z,3.80
2019-02-24T22:30:21.132Z,3.70
2019-02-24T22:32:50.523Z,3.70
2019-02-24T22:35:22.815Z,3.70
2019-02-24T22:37:53.403Z,3.70
2019-02-24T22:40:23.603Z,3.60
2019-02-24T22:42:52.958Z,3.60
2019-02-24T22:45:22.346Z,3.50
2019-02-24T22:47:52.011Z,3.50
2019-02-24T22:50:21.385Z,3.40
2019-02-24T22:52:50.797Z,3.30
2019-02-24T22:55:20.296Z,3.30
2019-02-24T22:57:49.673Z,3.20
2019-02-24T23:00:52.877Z,3.20
2019-02-24T23:03:22.511Z,3.20
2019-02-24T23:05:52.017Z,3.30
2019-02-24T23:08:21.383Z,3.30
2019-02-24T23:10:50.881Z,3.30
2019-02-24T23:13:20.875Z,3.20
2019-02-24T23:15:50.780Z,3.20
2019-02-24T23:18:20.633Z,3.20
2019-02-24T23:20:50.024Z,3.30
2019-02-24T23:23:19.406Z,3.30
2019-02-24T23:25:48.784Z,3.30
2019-02-24T23:28:18.171Z,3.30
2019-02-24T23:30:47.969Z,3.30
2019-02-24T23:33:17.479Z,3.30
2019-02-24T23:35:49.430Z,3.30
2019-02-24T23:38:18.567Z,3.20
2019-02-24T23:40:50.022Z,3.20
2019-02-24T23:43:19.809Z,3.10
2019-02-24T23:45:49.583Z,3.00
2019-02-24T23:48:19.329Z,3.00
2019-02-24T23:50:48.695Z,2.90
2019-02-24T23:53:18.231Z,2.80
2019-02-24T23:55:47.848Z,2.80
2019-02-24T23:58:17.922Z,2.80
